Time;durP1;ratioP1;P1;durP2;ratioP2;P2;SDS_P1;SDS_P2;PMS_P1;PMS_P2;Temp;Humidity;BMP_temperature;BMP_pressure;BME280_temperature;BME280_humidity;BME280_pressure;Samples;Min_cycle;Max_cycle;Signal;HPM_P1;HPM_P2
2021/10/13 00:01:20;;;;;;;16.35;3.67;;;7.20;99.90;;;;;;5031507;28;20060;-73
2021/10/13 00:03:49;;;;;;;12.20;2.30;;;7.30;99.90;;;;;;5015402;28;20508;-73
2021/10/13 00:06:15;;;;;;;7.78;2.08;;;7.30;99.90;;;;;;5031610;28;20543;-74
2021/10/13 00:08:43;;;;;;;10.60;2.60;;;7.30;99.90;;;;;;5046535;28;20036;-73
2021/10/13 00:11:09;;;;;;;9.55;2.47;;;7.40;99.90;;;;;;5033130;28;20083;-73
2021/10/13 00:13:35;;;;;;;11.32;3.15;;;7.40;99.90;;;;;;5031350;28;20082;-73
2021/10/13 00:16:05;;;;;;;8.45;2.88;;;7.50;99.90;;;;;;5012951;28;20136;-73
2021/10/13 00:18:34;;;;;;;8.30;2.67;;;7.60;99.90;;;;;;5013447;28;20050;-73
2021/10/13 00:21:01;;;;;;;10.35;3.42;;;7.60;99.90;;;;;;5016556;28;20045;-73
2021/10/13 00:23:26;;;;;;;11.73;3.83;;;7.70;99.90;;;;;;5015430;28;20053;-73
2021/10/13 00:25:52;;;;;;;8.95;2.63;;;7.70;99.90;;;;;;5032267;28;20117;-73
2021/10/13 00:28:18;;;;;;;10.30;2.70;;;7.80;99.90;;;;;;5049151;28;20057;-73
2021/10/13 00:30:44;;;;;;;10.60;2.88;;;7.80;99.90;;;;;;5015649;28;20068;-73
2021/10/13 00:33:09;;;;;;;9.40;2.45;;;7.90;99.90;;;;;;5032276;28;20051;-74
2021/10/13 00:35:35;;;;;;;13.45;2.85;;;8.00;99.90;;;;;;5048881;28;20044;-73
2021/10/13 00:38:03;;;;;;;11.48;3.25;;;8.00;99.90;;;;;;5032095;28;20680;-73
2021/10/13 00:40:29;;;;;;;8.70;2.08;;;8.00;99.90;;;;;;5030640;28;20140;-74
2021/10/13 00:42:55;;;;;;;7.63;2.13;;;8.00;99.90;;;;;;5032150;28;20063;-73
2021/10/13 00:45:21;;;;;;;9.88;2.40;;;8.00;99.90;;;;;;5032506;28;20041;-73
2021/10/13 00:47:47;;;;;;;10.68;2.42;;;8.00;99.90;;;;;;5049255;28;20126;-73
2021/10/13 00:50:13;;;;;;;8.93;2.10;;;8.00;99.90;;;;;;5052421;28;20473;-73
2021/10/13 00:52:41;;;;;;;9.23;2.20;;;8.00;99.90;;;;;;5064279;28;20045;-73
2021/10/13 00:55:10;;;;;;;9.68;2.20;;;7.90;99.90;;;;;;5032518;28;20549;-73
2021/10/13 00:57:36;;;;;;;9.38;2.30;;;7.90;99.90;;;;;;5048498;28;20079;-73
2021/10/13 01:00:05;;;;;;;7.90;1.80;;;7.90;99.90;;;;;;5032787;28;20045;-74
2021/10/13 01:02:41;;;;;;;12.67;2.10;;;7.90;99.90;;;;;;5051626;28;20045;-73
2021/10/13 01:05:24;;;;;;;12.65;3.15;;;7.90;99.90;;;;;;5051817;28;20052;-73
2021/10/13 01:07:59;;;;;;;7.82;2.15;;;7.80;99.90;;;;;;5034942;28;20495;-73
2021/10/13 01:10:47;;;;;;;8.18;1.88;;;7.70;99.90;;;;;;5050289;28;20068;-73
2021/10/13 01:13:38;;;;;;;7.15;1.55;;;7.80;99.90;;;;;;5034840;28;20044;-73
2021/10/13 01:16:07;;;;;;;6.22;1.90;;;7.70;99.90;;;;;;5064166;28;20049;-73
2021/10/13 01:18:52;;;;;;;5.75;1.50;;;7.70;99.90;;;;;;5047433;28;20514;-73
2021/10/13 01:21:43;;;;;;;8.93;2.42;;;7.60;99.90;;;;;;5031226;28;20049;-74
2021/10/13 01:24:30;;;;;;;13.60;2.83;;;7.60;99.90;;;;;;5048983;28;20055;-73
2021/10/13 01:27:28;;;;;;;6.60;1.77;;;7.50;99.90;;;;;;5033398;28;20055;-75
2021/10/13 01:29:56;;;;;;;7.20;1.60;;;7.50;99.90;;;;;;5049743;28;20040;-74
2021/10/13 01:32:26;;;;;;;6.35;1.90;;;7.50;99.90;;;;;;5033047;28;20431;-73
2021/10/13 01:34:58;;;;;;;9.27;2.38;;;7.50;99.90;;;;;;5049112;28;20044;-74
2021/10/13 01:37:45;;;;;;;6.13;1.83;;;7.50;99.90;;;;;;5033242;28;20051;-74
2021/10/13 01:40:15;;;;;;;8.05;1.90;;;7.50;99.90;;;;;;5049561;28;20044;-74
2021/10/13 01:42:45;;;;;;;8.50;1.95;;;7.40;99.90;;;;;;5032417;28;20119;-74
2021/10/13 01:45:12;;;;;;;9.63;1.90;;;7.40;99.90;;;;;;5049318;28;20041;-74
2021/10/13 01:47:39;;;;;;;6.45;1.70;;;7.40;99.90;;;;;;5048168;28;20044;-74
2021/10/13 01:50:07;;;;;;;8.55;1.80;;;7.40;99.90;;;;;;5048571;28;20415;-74
2021/10/13 01:52:34;;;;;;;9.82;2.30;;;7.40;99.90;;;;;;5047920;28;20041;-74
2021/10/13 01:55:03;;;;;;;7.13;1.80;;;7.40;99.90;;;;;;5031188;28;20148;-74
2021/10/13 01:57:30;;;;;;;6.38;1.67;;;7.40;99.90;;;;;;5049449;28;20071;-74
2021/10/13 02:00:01;;;;;;;7.05;1.63;;;7.40;99.90;;;;;;5049545;28;20044;-73
2021/10/13 02:02:31;;;;;;;9.77;1.90;;;7.40;99.90;;;;;;5029549;28;20057;-73
2021/10/13 02:04:58;;;;;;;8.98;2.10;;;7.40;99.90;;;;;;5048532;28;20048;-74
2021/10/13 02:07:26;;;;;;;6.72;2.08;;;7.40;99.90;;;;;;5032661;28;20048;-74
2021/10/13 02:09:57;;;;;;;8.35;2.30;;;7.40;99.90;;;;;;5032424;28;20441;-74
2021/10/13 02:12:24;;;;;;;10.07;2.78;;;7.40;99.90;;;;;;5032692;28;20080;-74
2021/10/13 02:14:52;;;;;;;8.10;2.53;;;7.40;99.90;;;;;;5048784;28;20086;-73
2021/10/13 02:17:19;;;;;;;10.57;2.83;;;7.40;99.90;;;;;;5032697;28;20079;-74
2021/10/13 02:19:47;;;;;;;10.13;3.22;;;7.50;99.90;;;;;;5032354;28;20036;-74
2021/10/13 02:22:15;;;;;;;11.45;2.67;;;7.50;99.90;;;;;;5044712;28;20049;-74
2021/10/13 02:24:52;;;;;;;9.27;2.70;;;7.60;99.90;;;;;;5048104;28;20467;-74
2021/10/13 02:27:33;;;;;;;8.70;2.95;;;7.60;99.90;;;;;;5047775;28;20058;-74
2021/10/13 02:30:00;;;;;;;7.25;2.80;;;7.70;99.90;;;;;;5058956;28;20554;-74
2021/10/13 02:32:26;;;;;;;10.73;2.63;;;7.70;99.90;;;;;;5048692;28;20067;-74
2021/10/13 02:34:54;;;;;;;8.45;2.40;;;7.70;99.90;;;;;;5029908;28;20044;-74
2021/10/13 02:37:20;;;;;;;9.23;2.72;;;7.80;99.90;;;;;;5048991;28;20118;-74
2021/10/13 02:39:46;;;;;;;9.10;2.95;;;7.80;99.90;;;;;;5032232;28;20036;-74
2021/10/13 02:42:11;;;;;;;8.90;2.60;;;7.80;99.90;;;;;;5048439;28;20041;-74
2021/10/13 02:44:38;;;;;;;7.55;2.55;;;7.80;99.90;;;;;;5047610;28;20081;-75
2021/10/13 02:47:15;;;;;;;9.90;2.33;;;7.90;99.90;;;;;;5047247;28;20114;-74
2021/10/13 02:50:06;;;;;;;8.43;2.40;;;7.90;99.90;;;;;;5030257;28;20052;-73
2021/10/13 02:53:03;;;;;;;11.18;2.35;;;7.80;99.90;;;;;;5048618;28;20040;-74
2021/10/13 02:55:40;;;;;;;11.60;2.75;;;7.80;99.90;;;;;;5027548;28;20094;-74
2021/10/13 02:58:36;;;;;;;8.07;2.10;;;7.70;99.90;;;;;;5045657;28;20101;-74
2021/10/13 03:01:03;;;;;;;8.27;2.25;;;7.70;99.90;;;;;;5045128;28;20051;-74
2021/10/13 03:03:41;;;;;;;8.43;2.15;;;7.70;99.90;;;;;;5051092;28;20056;-73
2021/10/13 03:06:08;;;;;;;8.23;2.17;;;7.60;99.90;;;;;;5047472;28;20048;-74
2021/10/13 03:08:37;;;;;;;8.70;2.40;;;7.60;99.90;;;;;;5030378;28;20135;-74
2021/10/13 03:11:05;;;;;;;7.57;2.20;;;7.60;99.90;;;;;;5046439;28;20044;-74
2021/10/13 03:13:36;;;;;;;7.55;2.17;;;7.60;99.90;;;;;;5045519;28;20525;-74
2021/10/13 03:16:08;;;;;;;6.85;1.88;;;7.60;99.90;;;;;;5046247;28;20036;-74
2021/10/13 03:18:37;;;;;;;7.03;2.55;;;7.60;99.90;;;;;;5046125;28;20097;-74
2021/10/13 03:21:10;;;;;;;11.82;2.70;;;7.60;99.90;;;;;;5046489;28;20040;-74
2021/10/13 03:23:36;;;;;;;5.85;2.10;;;7.60;99.90;;;;;;5046460;28;20127;-74
2021/10/13 03:26:12;;;;;;;7.00;2.10;;;7.70;99.90;;;;;;5047006;28;20778;-74
2021/10/13 03:28:39;;;;;;;6.65;2.15;;;7.70;99.90;;;;;;5046666;28;20072;-74
2021/10/13 03:31:06;;;;;;;9.25;2.05;;;7.70;99.90;;;;;;5030233;28;20059;-74
2021/10/13 03:33:38;;;;;;;10.93;2.40;;;7.70;99.90;;;;;;5029850;28;20032;-73
2021/10/13 03:36:06;;;;;;;8.27;2.30;;;7.80;99.90;;;;;;5028265;28;20469;-73
2021/10/13 03:38:32;;;;;;;10.30;2.53;;;7.80;99.90;;;;;;5046708;28;20083;-73
2021/10/13 03:40:58;;;;;;;10.82;2.65;;;7.80;99.90;;;;;;5030596;28;20071;-73
2021/10/13 03:43:24;;;;;;;11.07;2.53;;;7.80;99.90;;;;;;5031746;28;20470;-73
2021/10/13 03:45:50;;;;;;;8.27;2.20;;;7.90;99.90;;;;;;5033310;28;20131;-73
2021/10/13 03:48:16;;;;;;;6.90;2.05;;;7.90;99.90;;;;;;5049115;28;20048;-73
2021/10/13 03:50:42;;;;;;;7.93;2.03;;;7.90;99.90;;;;;;5049013;28;20048;-73
2021/10/13 03:53:08;;;;;;;11.07;2.75;;;8.00;99.90;;;;;;5031789;28;20052;-73
2021/10/13 03:55:34;;;;;;;7.07;2.33;;;8.10;99.90;;;;;;5047968;28;20033;-73
2021/10/13 03:58:00;;;;;;;8.45;2.78;;;8.10;99.90;;;;;;5050591;28;20394;-73
2021/10/13 04:00:27;;;;;;;11.77;3.00;;;8.10;99.90;;;;;;5049819;28;20110;-73
2021/10/13 04:02:53;;;;;;;7.93;2.72;;;8.10;99.90;;;;;;5036002;28;20045;-73
2021/10/13 04:05:19;;;;;;;9.43;2.75;;;8.10;99.90;;;;;;5052938;28;20127;-73
2021/10/13 04:07:44;;;;;;;9.82;2.50;;;8.30;99.90;;;;;;5053020;28;20046;-73
2021/10/13 04:10:13;;;;;;;6.93;2.45;;;8.20;99.90;;;;;;5052912;28;20461;-74
2021/10/13 04:12:40;;;;;;;10.15;2.20;;;8.20;99.90;;;;;;5022840;28;20099;-74
2021/10/13 04:15:07;;;;;;;11.50;2.25;;;8.30;99.90;;;;;;5039372;28;20036;-73
2021/10/13 04:17:34;;;;;;;8.60;2.10;;;8.20;99.90;;;;;;5052383;28;20040;-74
2021/10/13 04:20:05;;;;;;;10.43;2.85;;;8.30;99.90;;;;;;5052953;28;20049;-74
2021/10/13 04:22:30;;;;;;;10.32;2.30;;;8.20;99.90;;;;;;5051550;28;20953;-74
2021/10/13 04:24:57;;;;;;;7.22;1.95;;;8.20;99.90;;;;;;5052876;28;20048;-74
2021/10/13 04:27:22;;;;;;;8.43;2.30;;;8.20;99.90;;;;;;5051874;28;20475;-74
2021/10/13 04:29:48;;;;;;;11.68;2.40;;;8.20;99.90;;;;;;5069604;28;20127;-74
2021/10/13 04:32:14;;;;;;;9.07;2.25;;;8.30;99.90;;;;;;5036445;28;20059;-74
2021/10/13 04:34:40;;;;;;;5.35;1.63;;;8.30;99.90;;;;;;5069447;28;20071;-74
2021/10/13 04:37:06;;;;;;;8.68;2.25;;;8.40;99.90;;;;;;5052974;28;20483;-74
2021/10/13 04:39:35;;;;;;;9.70;2.30;;;8.40;99.90;;;;;;5035887;28;20478;-74
2021/10/13 04:42:00;;;;;;;7.85;2.00;;;8.40;99.90;;;;;;5053229;28;20047;-74
2021/10/13 04:44:26;;;;;;;10.32;2.13;;;8.40;99.90;;;;;;5048468;28;20037;-73
2021/10/13 04:46:52;;;;;;;9.82;1.75;;;8.40;99.90;;;;;;5021686;28;20113;-74
2021/10/13 04:49:18;;;;;;;8.57;2.03;;;8.40;99.90;;;;;;5035849;28;20087;-74
2021/10/13 04:51:44;;;;;;;6.47;1.65;;;8.40;99.90;;;;;;5051507;28;20048;-74
2021/10/13 04:54:09;;;;;;;6.90;1.90;;;8.50;99.90;;;;;;5068895;28;20040;-75
2021/10/13 04:56:37;;;;;;;7.25;2.00;;;8.50;99.90;;;;;;5015689;28;20048;-74
2021/10/13 04:59:03;;;;;;;6.93;1.90;;;8.50;99.90;;;;;;5032413;28;20067;-74
2021/10/13 05:01:29;;;;;;;4.70;1.42;;;8.50;99.90;;;;;;5031737;28;20452;-76
2021/10/13 05:03:54;;;;;;;7.80;1.55;;;8.60;99.90;;;;;;5015764;28;20076;-76
2021/10/13 05:06:20;;;;;;;8.38;1.88;;;8.60;99.90;;;;;;5050113;28;20071;-76
2021/10/13 05:08:46;;;;;;;4.30;1.33;;;8.60;99.90;;;;;;5034727;28;20052;-74
2021/10/13 05:11:12;;;;;;;6.50;1.38;;;8.60;99.90;;;;;;5035379;28;20055;-75
2021/10/13 05:13:37;;;;;;;8.32;1.50;;;8.60;99.90;;;;;;5035191;28;20509;-75
2021/10/13 05:16:04;;;;;;;6.97;1.52;;;8.60;99.90;;;;;;5051404;28;20131;-74
2021/10/13 05:18:29;;;;;;;6.68;1.60;;;8.50;99.90;;;;;;5051492;28;20747;-74
2021/10/13 05:20:55;;;;;;;6.40;1.48;;;8.50;99.90;;;;;;5049607;28;20045;-74
2021/10/13 05:23:21;;;;;;;7.95;1.77;;;8.50;99.90;;;;;;5040584;28;20400;-74
2021/10/13 05:25:47;;;;;;;5.90;1.33;;;8.40;99.90;;;;;;5047948;28;20445;-75
2021/10/13 05:28:13;;;;;;;6.65;2.10;;;8.40;99.90;;;;;;5031798;28;20036;-74
2021/10/13 05:30:39;;;;;;;4.60;1.40;;;8.40;99.90;;;;;;5048637;28;20044;-74
2021/10/13 05:33:04;;;;;;;7.18;1.88;;;8.40;99.90;;;;;;5048412;28;20081;-74
2021/10/13 05:35:30;;;;;;;6.53;1.48;;;8.40;99.90;;;;;;5032242;28;20048;-74
2021/10/13 05:37:56;;;;;;;9.88;1.63;;;8.40;99.90;;;;;;5047215;28;20064;-74
2021/10/13 05:40:22;;;;;;;8.93;1.65;;;8.40;99.90;;;;;;5062922;28;20048;-74
2021/10/13 05:42:48;;;;;;;7.03;1.35;;;8.40;99.90;;;;;;5027844;28;20029;-73
2021/10/13 05:45:13;;;;;;;5.40;1.10;;;8.40;99.90;;;;;;5032971;28;20041;-74
2021/10/13 05:47:39;;;;;;;7.47;1.40;;;8.30;99.90;;;;;;5046275;28;20040;-74
2021/10/13 05:50:05;;;;;;;8.70;1.48;;;8.30;99.90;;;;;;5051730;28;20093;-75
2021/10/13 05:52:34;;;;;;;5.97;1.40;;;8.30;99.90;;;;;;5047077;28;20063;-74
2021/10/13 05:55:00;;;;;;;4.78;1.42;;;8.30;99.90;;;;;;5044574;28;20049;-74
2021/10/13 05:57:25;;;;;;;7.05;2.35;;;8.30;99.90;;;;;;5030377;28;20448;-75
2021/10/13 05:59:58;;;;;;;5.18;1.40;;;8.30;99.90;;;;;;5051236;28;20051;-75
2021/10/13 06:02:25;;;;;;;9.90;2.22;;;8.40;99.90;;;;;;5044172;28;20060;-76
2021/10/13 06:04:52;;;;;;;8.82;2.00;;;8.40;99.90;;;;;;5042489;28;20090;-75
2021/10/13 06:07:18;;;;;;;10.80;2.40;;;8.40;99.90;;;;;;5045016;28;20062;-76
2021/10/13 06:09:44;;;;;;;6.43;1.88;;;8.40;99.90;;;;;;5029351;28;20036;-75
2021/10/13 06:12:09;;;;;;;9.73;2.67;;;8.50;99.90;;;;;;5029002;28;20037;-76
2021/10/13 06:14:35;;;;;;;6.90;2.00;;;8.50;99.90;;;;;;5028424;28;20067;-75
2021/10/13 06:17:06;;;;;;;9.13;2.03;;;8.50;99.90;;;;;;5040134;28;20052;-77
2021/10/13 06:19:35;;;;;;;7.93;1.90;;;8.50;99.90;;;;;;5024033;28;20517;-74
2021/10/13 06:22:01;;;;;;;9.82;1.98;;;8.50;99.90;;;;;;5046326;28;20044;-74
2021/10/13 06:24:29;;;;;;;10.57;1.90;;;8.50;99.90;;;;;;5047440;28;20122;-73
2021/10/13 06:26:55;;;;;;;7.60;2.20;;;8.50;99.90;;;;;;5030816;28;20072;-74
2021/10/13 06:29:21;;;;;;;7.07;1.92;;;8.50;99.90;;;;;;5047997;28;20594;-74
2021/10/13 06:31:47;;;;;;;10.55;2.30;;;8.50;99.90;;;;;;5047200;28;20068;-74
2021/10/13 06:34:15;;;;;;;9.23;2.50;;;8.60;99.90;;;;;;5049127;28;20080;-73
2021/10/13 06:36:41;;;;;;;6.47;1.80;;;8.60;99.90;;;;;;5047688;28;20040;-74
2021/10/13 06:39:07;;;;;;;7.13;2.10;;;8.50;99.90;;;;;;5033648;28;20059;-74
2021/10/13 06:41:33;;;;;;;5.85;1.90;;;8.50;99.90;;;;;;5047608;28;20045;-74
2021/10/13 06:43:59;;;;;;;5.07;1.58;;;8.50;99.90;;;;;;5048137;28;20525;-74
2021/10/13 06:46:25;;;;;;;6.32;1.95;;;8.50;99.90;;;;;;5048497;28;20047;-74
2021/10/13 06:48:51;;;;;;;8.75;2.35;;;8.50;99.90;;;;;;5048551;28;20044;-74
2021/10/13 06:51:17;;;;;;;10.07;1.90;;;8.50;99.90;;;;;;5049493;28;20060;-74
2021/10/13 06:53:46;;;;;;;7.97;2.08;;;8.50;99.90;;;;;;5031595;28;20045;-74
2021/10/13 06:56:12;;;;;;;8.88;2.30;;;8.50;99.90;;;;;;5049013;28;20690;-74
2021/10/13 06:58:38;;;;;;;7.45;2.53;;;8.60;99.90;;;;;;5030236;28;20434;-74
2021/10/13 07:01:04;;;;;;;9.73;2.17;;;8.60;99.90;;;;;;5029515;28;20099;-74
2021/10/13 07:03:30;;;;;;;9.80;2.15;;;8.60;99.90;;;;;;5048492;28;20044;-74
2021/10/13 07:05:56;;;;;;;7.05;2.15;;;8.60;99.90;;;;;;5030910;28;20956;-74
2021/10/13 07:08:21;;;;;;;6.63;2.40;;;8.60;99.90;;;;;;5050543;28;20470;-73
2021/10/13 07:10:47;;;;;;;8.18;2.00;;;8.70;99.90;;;;;;5031492;28;20098;-73
2021/10/13 07:13:13;;;;;;;8.30;2.00;;;8.70;99.90;;;;;;5029252;28;20083;-73
2021/10/13 07:15:39;;;;;;;6.55;2.15;;;8.70;99.90;;;;;;5031124;28;20040;-73
2021/10/13 07:18:06;;;;;;;8.25;2.45;;;8.80;99.90;;;;;;5046658;28;20048;-72
2021/10/13 07:20:35;;;;;;;7.68;2.08;;;8.80;99.90;;;;;;5034707;28;20116;-73
2021/10/13 07:23:05;;;;;;;6.28;1.77;;;8.90;99.90;;;;;;5050280;28;20045;-73
2021/10/13 07:25:34;;;;;;;8.15;2.17;;;8.90;99.90;;;;;;5035559;28;20495;-73
2021/10/13 07:28:01;;;;;;;7.57;1.63;;;9.00;99.90;;;;;;5035093;28;20071;-73
2021/10/13 07:30:30;;;;;;;8.27;1.70;;;9.00;99.90;;;;;;5036234;28;20519;-72
2021/10/13 07:32:55;;;;;;;7.53;1.73;;;9.10;99.90;;;;;;5051177;28;20075;-72
2021/10/13 07:35:22;;;;;;;9.38;1.83;;;9.10;99.90;;;;;;5035141;28;20049;-73
2021/10/13 07:37:52;;;;;;;9.98;2.20;;;9.10;99.90;;;;;;5051221;28;20037;-73
2021/10/13 07:40:18;;;;;;;5.13;1.52;;;9.20;99.90;;;;;;5052072;28;20048;-72
2021/10/13 07:42:44;;;;;;;4.80;1.50;;;9.30;99.90;;;;;;5049307;28;20110;-73
2021/10/13 07:45:10;;;;;;;4.93;1.60;;;9.30;99.90;;;;;;5035693;28;20043;-72
2021/10/13 07:47:36;;;;;;;7.93;1.65;;;9.40;99.90;;;;;;5049150;28;20102;-72
2021/10/13 07:50:04;;;;;;;7.53;1.80;;;9.60;99.90;;;;;;5051602;28;20074;-72
2021/10/13 07:52:37;;;;;;;7.13;1.52;;;9.80;99.90;;;;;;5034344;28;20446;-73
2021/10/13 07:55:04;;;;;;;9.05;1.88;;;10.00;99.90;;;;;;5035195;28;20037;-73
2021/10/13 07:57:30;;;;;;;3.90;1.35;;;10.30;99.90;;;;;;5051639;28;20076;-73
2021/10/13 07:59:56;;;;;;;6.28;1.48;;;10.50;99.90;;;;;;5051001;28;20149;-73
2021/10/13 08:02:26;;;;;;;7.63;1.23;;;10.70;99.90;;;;;;5051787;28;20049;-73
2021/10/13 08:04:51;;;;;;;5.80;1.30;;;10.90;99.90;;;;;;5051539;28;20450;-73
2021/10/13 08:07:17;;;;;;;4.47;1.10;;;11.10;99.90;;;;;;5051482;28;20110;-73
2021/10/13 08:09:44;;;;;;;7.35;1.38;;;11.40;99.90;;;;;;5051224;28;20516;-73
2021/10/13 08:12:10;;;;;;;5.70;1.10;;;11.50;99.90;;;;;;5047746;28;20617;-73
2021/10/13 08:14:38;;;;;;;4.90;1.13;;;11.60;99.90;;;;;;5050374;28;20048;-73
2021/10/13 08:17:04;;;;;;;6.35;1.48;;;11.60;99.90;;;;;;5032137;28;20041;-73
2021/10/13 08:19:30;;;;;;;8.50;2.10;;;11.60;99.90;;;;;;5034745;28;20491;-72
2021/10/13 08:21:56;;;;;;;5.15;1.58;;;11.70;99.90;;;;;;5050839;28;20055;-73
2021/10/13 08:24:22;;;;;;;7.82;1.55;;;11.70;99.90;;;;;;5050764;28;20037;-73
2021/10/13 08:26:47;;;;;;;6.78;1.17;;;11.80;99.90;;;;;;5050629;28;20075;-73
2021/10/13 08:29:13;;;;;;;4.53;1.08;;;11.90;99.90;;;;;;5051123;28;20040;-73
2021/10/13 08:31:42;;;;;;;6.57;0.90;;;12.10;99.90;;;;;;5051222;28;20040;-72
2021/10/13 08:34:08;;;;;;;5.15;1.23;;;12.20;99.90;;;;;;5050463;28;20122;-73
2021/10/13 08:36:34;;;;;;;4.70;1.00;;;12.30;99.90;;;;;;5034581;28;20456;-73
2021/10/13 08:39:00;;;;;;;5.40;1.00;;;12.30;99.90;;;;;;5050426;28;20036;-73
2021/10/13 08:41:25;;;;;;;5.07;1.00;;;12.20;99.90;;;;;;5033620;28;20037;-73
2021/10/13 08:43:51;;;;;;;7.80;1.05;;;12.20;99.90;;;;;;5050148;28;20040;-73
2021/10/13 08:46:17;;;;;;;7.18;1.42;;;12.20;99.90;;;;;;5033369;28;20055;-73
2021/10/13 08:48:43;;;;;;;4.63;1.10;;;12.20;99.90;;;;;;5048058;28;20526;-73
2021/10/13 08:51:08;;;;;;;9.35;1.13;;;12.30;99.90;;;;;;5031204;28;20040;-73
2021/10/13 08:53:34;;;;;;;5.93;1.10;;;12.40;99.90;;;;;;5014971;28;20033;-73
2021/10/13 08:56:00;;;;;;;5.07;1.33;;;12.40;99.90;;;;;;5015118;28;20049;-74
2021/10/13 08:58:28;;;;;;;8.73;2.58;;;12.40;99.90;;;;;;5047659;28;20061;-74
2021/10/13 09:01:13;;;;;;;9.80;3.33;;;12.40;99.90;;;;;;5028109;28;20045;-74
2021/10/13 09:03:47;;;;;;;8.18;2.38;;;12.40;99.90;;;;;;5031019;28;20045;-74
2021/10/13 09:06:25;;;;;;;18.60;7.07;;;12.40;99.90;;;;;;5030578;28;20045;-73
2021/10/13 09:09:12;;;;;;;13.57;4.63;;;12.30;99.90;;;;;;5046504;28;20048;-73
2021/10/13 09:11:48;;;;;;;8.80;3.05;;;12.30;99.90;;;;;;5045523;28;20045;-73
2021/10/13 09:14:26;;;;;;;8.20;2.28;;;12.30;99.90;;;;;;5038719;28;20041;-73
2021/10/13 09:17:05;;;;;;;13.40;4.50;;;12.30;99.90;;;;;;5045390;28;20055;-73
2021/10/13 09:19:51;;;;;;;7.97;2.20;;;12.30;99.90;;;;;;5046622;28;20048;-74
2021/10/13 09:22:19;;;;;;;6.43;1.85;;;12.30;99.90;;;;;;5030439;28;20064;-73
2021/10/13 09:24:46;;;;;;;4.25;0.90;;;12.20;99.90;;;;;;5046476;28;20403;-74
2021/10/13 09:27:21;;;;;;;6.05;1.08;;;12.20;99.90;;;;;;5030351;28;20731;-74
2021/10/13 09:29:57;;;;;;;3.60;0.70;;;12.30;99.90;;;;;;5029783;28;20041;-73
2021/10/13 09:32:27;;;;;;;7.10;1.13;;;12.30;99.90;;;;;;5030287;28;20041;-73
2021/10/13 09:35:00;;;;;;;2.83;0.70;;;12.40;99.90;;;;;;5046025;28;20077;-74
2021/10/13 09:37:50;;;;;;;2.85;0.60;;;12.60;99.90;;;;;;5028562;28;20581;-73
2021/10/13 09:40:35;;;;;;;4.00;0.82;;;12.80;99.90;;;;;;5044138;28;20081;-73
2021/10/13 09:43:04;;;;;;;3.38;0.75;;;12.90;99.90;;;;;;5008853;28;20051;-75
2021/10/13 09:45:37;;;;;;;3.90;0.70;;;13.00;99.90;;;;;;5029969;28;20037;-75
2021/10/13 09:48:06;;;;;;;2.55;0.82;;;13.20;99.90;;;;;;5044514;28;20048;-75
2021/10/13 09:50:47;;;;;;;3.40;0.70;;;13.30;99.90;;;;;;5029691;28;20132;-75
2021/10/13 09:53:30;;;;;;;3.83;0.80;;;13.30;99.90;;;;;;5044938;28;20080;-75
2021/10/13 09:55:56;;;;;;;4.70;0.80;;;13.30;99.90;;;;;;5029257;28;20047;-75
2021/10/13 09:58:37;;;;;;;5.68;0.63;;;13.20;99.90;;;;;;5028948;28;20629;-75
2021/10/13 10:01:11;;;;;;;5.43;1.55;;;13.10;99.90;;;;;;5028721;28;20114;-75
2021/10/13 10:03:40;;;;;;;3.28;0.88;;;13.10;99.90;;;;;;5046198;28;20056;-75
2021/10/13 10:06:07;;;;;;;4.72;0.95;;;13.10;99.90;;;;;;5045307;28;20079;-75
2021/10/13 10:08:51;;;;;;;6.00;0.63;;;13.10;99.90;;;;;;5042580;28;20072;-75
2021/10/13 10:11:34;;;;;;;4.70;1.02;;;13.10;99.90;;;;;;5044943;28;20044;-75
2021/10/13 10:14:02;;;;;;;5.28;0.70;;;13.10;99.90;;;;;;5026569;28;20048;-74
2021/10/13 10:16:29;;;;;;;3.90;1.02;;;13.10;99.90;;;;;;5045565;28;20045;-74
2021/10/13 10:19:21;;;;;;;3.33;0.68;;;13.20;99.90;;;;;;5044603;28;20549;-74
2021/10/13 10:21:56;;;;;;;4.60;0.90;;;13.30;99.90;;;;;;5045352;28;20053;-74
2021/10/13 10:24:35;;;;;;;5.70;0.93;;;13.40;99.90;;;;;;5029124;28;20059;-74
2021/10/13 10:27:20;;;;;;;4.30;0.70;;;13.50;99.90;;;;;;5026181;28;20049;-74
2021/10/13 10:29:46;;;;;;;3.78;0.73;;;13.60;99.90;;;;;;5044976;28;20330;-74
2021/10/13 10:32:19;;;;;;;3.83;0.80;;;13.60;99.90;;;;;;5045423;28;20056;-74
2021/10/13 10:35:03;;;;;;;6.05;0.90;;;13.70;99.90;;;;;;5044991;28;20033;-74
2021/10/13 10:37:45;;;;;;;2.25;0.57;;;13.80;99.90;;;;;;5026019;28;20099;-74
2021/10/13 10:40:30;;;;;;;3.03;0.68;;;13.80;99.90;;;;;;5075074;28;20049;-74
2021/10/13 10:43:18;;;;;;;2.45;0.60;;;13.80;99.90;;;;;;5043711;28;20060;-73
2021/10/13 10:45:50;;;;;;;4.80;1.05;;;13.70;99.90;;;;;;5045762;28;20043;-72
2021/10/13 10:48:16;;;;;;;3.70;0.80;;;13.60;99.90;;;;;;5045361;28;20057;-72
2021/10/13 10:50:51;;;;;;;3.95;0.98;;;13.50;99.90;;;;;;5032309;28;20045;-73
2021/10/13 10:53:22;;;;;;;3.47;0.80;;;13.30;99.90;;;;;;5051405;28;20498;-72
2021/10/13 10:55:50;;;;;;;2.85;0.60;;;13.30;99.90;;;;;;5052480;28;20404;-74
2021/10/13 10:58:19;;;;;;;1.00;0.40;;;13.00;99.90;;;;;;5052501;28;20129;-72
2021/10/13 11:00:46;;;;;;;3.47;0.70;;;12.80;99.90;;;;;;5033281;28;20072;-73
2021/10/13 11:03:20;;;;;;;1.02;0.50;;;12.60;99.90;;;;;;5036215;28;20037;-73
2021/10/13 11:05:47;;;;;;;2.22;0.55;;;12.30;99.90;;;;;;5034918;28;20113;-73
2021/10/13 11:08:13;;;;;;;3.97;0.70;;;12.10;99.90;;;;;;5052563;28;20055;-74
2021/10/13 11:10:39;;;;;;;2.88;0.50;;;11.90;99.90;;;;;;5053438;28;20041;-73
2021/10/13 11:13:05;;;;;;;2.92;0.45;;;11.90;99.90;;;;;;5033351;28;20037;-74
2021/10/13 11:15:32;;;;;;;3.72;0.57;;;11.80;99.90;;;;;;5053413;28;20047;-74
2021/10/13 11:18:16;;;;;;;3.78;0.50;;;11.80;99.90;;;;;;5033429;28;20094;-74
2021/10/13 11:20:43;;;;;;;1.90;0.50;;;11.80;99.90;;;;;;5051945;28;20052;-74
2021/10/13 11:23:11;;;;;;;3.00;0.60;;;11.80;99.90;;;;;;5033585;28;20036;-74
2021/10/13 11:25:38;;;;;;;1.73;0.68;;;11.80;99.90;;;;;;5037022;28;20044;-74
2021/10/13 11:28:13;;;;;;;3.05;0.50;;;11.90;99.90;;;;;;5052200;28;20110;-73
2021/10/13 11:30:47;;;;;;;2.10;0.52;;;12.00;99.90;;;;;;5036476;28;20047;-73
2021/10/13 11:33:19;;;;;;;3.03;1.10;;;12.00;99.90;;;;;;5035801;28;20052;-73
2021/10/13 11:35:46;;;;;;;1.17;0.40;;;12.10;99.90;;;;;;5035521;28;20123;-73
2021/10/13 11:38:20;;;;;;;2.53;0.57;;;12.20;99.90;;;;;;5035438;28;20116;-73
2021/10/13 11:40:47;;;;;;;3.25;0.60;;;12.40;99.90;;;;;;5035233;28;20051;-73
2021/10/13 11:43:17;;;;;;;3.08;0.55;;;12.40;99.90;;;;;;5050410;28;20495;-73
2021/10/13 11:45:48;;;;;;;2.92;0.70;;;12.50;99.90;;;;;;5051736;28;20530;-73
2021/10/13 11:48:32;;;;;;;4.80;0.73;;;12.60;99.90;;;;;;5050173;28;20040;-73
2021/10/13 11:51:02;;;;;;;5.18;0.77;;;12.80;99.90;;;;;;5035215;28;20048;-73
2021/10/13 11:53:28;;;;;;;3.55;0.80;;;12.90;99.90;;;;;;5035616;28;20048;-73
2021/10/13 11:55:54;;;;;;;3.92;0.85;;;13.00;99.90;;;;;;5051028;28;20051;-73
2021/10/13 11:58:29;;;;;;;6.63;1.05;;;13.10;99.90;;;;;;5034736;28;20044;-73
2021/10/13 12:00:55;;;;;;;4.72;0.80;;;13.20;99.90;;;;;;5051368;28;20052;-73
2021/10/13 12:03:33;;;;;;;3.60;0.73;;;13.30;99.90;;;;;;5051305;28;20056;-73
2021/10/13 12:06:00;;;;;;;2.78;0.75;;;13.40;99.90;;;;;;5034580;28;20052;-73
2021/10/13 12:08:35;;;;;;;1.98;0.50;;;13.40;99.90;;;;;;5051053;28;20040;-73
2021/10/13 12:11:13;;;;;;;2.75;0.75;;;13.50;99.90;;;;;;5050868;28;20040;-72
2021/10/13 12:13:41;;;;;;;3.95;0.90;;;13.60;99.90;;;;;;5033421;28;20048;-73
2021/10/13 12:16:09;;;;;;;4.57;0.80;;;13.80;99.90;;;;;;5049965;28;20036;-72
2021/10/13 12:18:46;;;;;;;5.90;0.82;;;13.90;99.90;;;;;;5051746;28;20052;-73
2021/10/13 12:21:15;;;;;;;5.22;1.30;;;13.90;99.90;;;;;;5033693;28;20040;-73
2021/10/13 12:23:58;;;;;;;9.25;1.17;;;14.00;99.90;;;;;;5034410;28;20032;-72
2021/10/13 12:26:35;;;;;;;7.97;1.00;;;13.90;99.90;;;;;;5032637;28;20048;-72
2021/10/13 12:29:10;;;;;;;5.72;1.05;;;13.90;99.90;;;;;;5050696;28;20114;-73
2021/10/13 12:31:36;;;;;;;5.90;1.40;;;13.90;99.90;;;;;;5034714;28;20048;-73
2021/10/13 12:34:07;;;;;;;6.25;1.20;;;13.90;99.90;;;;;;5050583;28;20037;-72
2021/10/13 12:36:51;;;;;;;3.97;1.00;;;13.90;99.90;;;;;;5051160;28;20049;-72
2021/10/13 12:39:22;;;;;;;4.53;1.02;;;13.90;99.90;;;;;;5050193;28;20040;-73
2021/10/13 12:41:48;;;;;;;5.05;1.20;;;13.90;99.90;;;;;;5032076;28;20106;-72
2021/10/13 12:44:23;;;;;;;4.10;1.45;;;13.90;99.90;;;;;;5051045;28;20479;-72
2021/10/13 12:46:57;;;;;;;6.30;1.65;;;14.00;99.90;;;;;;5050622;28;20040;-73
2021/10/13 12:49:24;;;;;;;7.63;1.45;;;14.00;99.90;;;;;;5046431;28;20049;-73
2021/10/13 12:52:08;;;;;;;5.32;1.10;;;14.00;99.90;;;;;;5021049;28;20049;-72
2021/10/13 12:54:40;;;;;;;4.05;1.00;;;14.00;99.90;;;;;;5040872;28;20041;-72
2021/10/13 12:57:14;;;;;;;9.80;1.52;;;14.00;99.90;;;;;;5026884;28;20055;-73
2021/10/13 12:59:41;;;;;;;5.35;1.17;;;13.90;99.90;;;;;;5027617;28;20040;-72
2021/10/13 13:02:07;;;;;;;4.95;0.90;;;13.80;99.90;;;;;;5010536;28;20500;-72
2021/10/13 13:04:33;;;;;;;5.55;0.85;;;13.70;99.90;;;;;;5030258;28;20110;-72
2021/10/13 13:07:00;;;;;;;6.57;1.90;;;13.60;99.90;;;;;;5027214;28;20048;-73